Tuesday, October 16, 2018, 7:00 AM EDT
Back to Local

KSEG, Selinsgrove Penn Valley Airport

Location: Selinsgrove, PA, United States Lat: 40.817
Local Time: 7:00 AM EDT (11:00 GMT) Lon: -76.867
Time Zone: US/Eastern Elev: 449 ft

Show me the last for .
Show Decoded

2018-10-16 05:53 METAR KSEG 160953Z AUTO 00000KT 10SM CLR 07/00 A3020 RMK AO2 SLP226 T00670000 =
2018-10-16 04:53 METAR KSEG 160853Z AUTO 30005KT 10SM CLR 07/02 A3018 RMK AO2 SLP219 T00720017
                 53020 =
2018-10-16 03:53 METAR KSEG 160753Z AUTO 31007KT 10SM CLR 09/02 A3015 RMK AO2 SLP208 T00890017 =
2018-10-16 02:53 METAR KSEG 160653Z AUTO 30007KT 10SM BKN041 10/05 A3013 RMK AO2 SLP202 T01000050
                 =
2018-10-16 01:53 METAR KSEG 160553Z AUTO 00000KT 10SM BKN047 11/04 A3012 RMK AO2 SLP198 60000
                 T01110044 10167 20111 51027 =
2018-10-16 00:53 METAR KSEG 160453Z AUTO 29006G14KT 10SM CLR 12/04 A3011 RMK AO2 SLP195 T01170039
                 401720100 =
2018-10-15 23:53 METAR KSEG 160353Z AUTO 30014G25KT 10SM SCT036 SCT050 BKN095 13/05 A3008 RMK AO2
                 RAB21E31 SLP186 P0000 T01280050 =
2018-10-15 22:53 METAR KSEG 160253Z AUTO VRB06G18KT 10SM FEW029 BKN050 OVC080 14/08 A3003 RMK AO2
                 SLP170 T01390083 53034 =
2018-10-15 21:53 METAR KSEG 160153Z AUTO 28006KT 10SM FEW032 OVC055 15/10 A3000 RMK AO2 SLP157
                 T01500100 =
2018-10-15 20:53 METAR KSEG 160053Z AUTO 29011G19KT 10SM FEW028 BKN036 OVC055 16/11 A2996 RMK AO2
                 SLP146 T01560111 =
2018-10-15 19:53 METAR KSEG 152353Z AUTO VRB04KT 10SM FEW028 OVC047 17/14 A2993 RMK AO2 RAE24
                 SLP136 P0003 60006 T01670139 10172 20167 53019 =
2018-10-15 19:26 METAR KSEG 152326Z AUTO VRB04KT 10SM SCT028 SCT037 OVC049 17/14 A2991 RMK AO2
                 RAE24 P0003 T01670144 =
2018-10-15 19:02 METAR KSEG 152302Z AUTO 00000KT 3SM RA BR SCT013 BKN023 OVC035 17/16 A2990 RMK
                 AO2 P0002 T01670156 =
2018-10-15 18:53 METAR KSEG 152253Z AUTO VRB04G15KT 4SM RA BR BKN013 BKN021 OVC037 17/16 A2990
                 RMK AO2 RAB40 SLP124 P0003 T01720156 =
2018-10-15 17:53 METAR KSEG 152153Z AUTO VRB05KT 10SM OVC012 17/15 A2988 RMK AO2 SLP117 T01720150
                 =
2018-10-15 17:35 METAR KSEG 152135Z AUTO VRB04KT 10SM BKN012 BKN037 OVC048 17/15 A2988 RMK AO2
                 T01670150 =
2018-10-15 16:53 METAR KSEG 152053Z AUTO VRB03KT 10SM FEW012 BKN038 OVC055 17/14 A2988 RMK AO2
                 SLP116 T01720144 58012 =
2018-10-15 16:23 METAR KSEG 152023Z AUTO VRB05KT 10SM FEW014 OVC039 17/14 A2989 RMK AO2 T01720144
                 =
2018-10-15 15:53 METAR KSEG 151953Z AUTO 20004KT 10SM BKN014 OVC037 17/14 A2990 RMK AO2 SLP126
                 T01720144 =
2018-10-15 15:51 METAR KSEG 151951Z AUTO VRB05KT 10SM BKN014 OVC037 17/14 A2991 RMK AO2 =
2018-10-15 15:33 METAR KSEG 151933Z AUTO VRB03KT 10SM BKN015 BKN040 OVC050 17/14 A2991 RMK AO2
                 T01670139 =
2018-10-15 15:05 METAR KSEG 151905Z AUTO VRB06KT 10SM SCT017 OVC042 17/14 A2991 RMK AO2 T01720139
                 =
2018-10-15 14:53 METAR KSEG 151853Z AUTO VRB06KT 10SM BKN017 OVC042 17/14 A2991 RMK AO2 SLP129
                 T01720139 =
2018-10-15 13:53 METAR KSEG 151753Z AUTO 20007KT 10SM OVC018 17/14 A2995 RMK AO2 SLP141 60004
                 T01720139 10172 20122 56022 =
2018-10-15 12:53 METAR KSEG 151653Z AUTO 20008G15KT 170V240 10SM OVC017 17/13 A2996 RMK AO2
                 SLP144 T01670133 =
2018-10-15 12:45 METAR KSEG 151645Z AUTO 16010G15KT 10SM OVC015 17/13 A2996 RMK AO2 T01670133 =
2018-10-15 11:53 METAR KSEG 151553Z AUTO 20006KT 10SM OVC012 15/13 A2999 RMK AO2 SLP154 T01500128
                 =
2018-10-15 10:53 METAR KSEG 151453Z AUTO 20005KT 10SM OVC011 14/13 A3001 RMK AO2 RAE1358 SLP164
                 P0000 60004 T01440128 58009 =
2018-10-15 09:53 METAR KSEG 151353Z AUTO VRB03KT 4SM -RA BR OVC010 13/12 A3003 RMK AO2 RAB47 CIG
                 008V012 SLP170 P0000 T01330122 =
2018-10-15 09:48 METAR KSEG 151348Z AUTO VRB03KT 4SM -RA BR OVC010 13/12 A3003 RMK AO2 RAB47 CIG
                 008V012 P0000 =
2018-10-15 08:53 METAR KSEG 151253Z AUTO 00000KT 4SM BR OVC007 12/12 A3004 RMK AO2 RAB11E37
                 SLP174 P0004 T01220117 =
2018-10-15 08:32 METAR KSEG 151232Z AUTO 00000KT 3SM -RA BR OVC007 12/12 A3005 RMK AO2 RAB11
                 P0004 T01220117 =
2018-10-15 08:22 METAR KSEG 151222Z AUTO 00000KT 1 3/4SM RA BR OVC007 12/12 A3005 RMK AO2 VIS 1
                 1/4V3 RAB11 P0003 T01220117 =
2018-10-15 07:53 METAR KSEG 151153Z AUTO 20004KT 7SM OVC007 12/12 A3005 RMK AO2 RAB43E52 SLP175
                 P0000 60001 70001 T01220117 10122 20100 56016 =

Support USWX by starting your Amazon purchase here.